Terminal Aerodrome Forecast
Issued by NWS Central Illinois

Home | Current Version | Previous Version | Text Only | Print | Product List | Glossary On
Versions: 1 2 3 4 5 6 7 8 9 10 11 12 13 14 15 16 17 18 19 20 21 22
000
FTUS43 KILX 041700
TAFPIA
TAF
KPIA 041721Z 0418/0518 33014KT P6SM OVC070
     FM042300 33008KT P6SM SCT120 BKN250
     FM050300 32005KT P6SM SCT250
     FM051200 31008KT P6SM SKC=

USA.gov is the U.S. government's official web portal to all federal, state and local government web resources and services.